Time;durP1;ratioP1;P1;durP2;ratioP2;P2;SDS_P1;SDS_P2;PMS_P1;PMS_P2;Temp;Humidity;BMP_temperature;BMP_pressure;BME280_temperature;BME280_humidity;BME280_pressure;Samples;Min_cycle;Max_cycle;Signal;HPM_P1;HPM_P2
2023/01/09 00:00:51;;;;;;;56.47;32.75;;;4.00;99.90;;;;;;5043909;28;20214;-84
2023/01/09 00:03:19;;;;;;;52.40;29.50;;;4.10;99.90;;;;;;5047791;28;20205;-86
2023/01/09 00:05:46;;;;;;;42.88;28.05;;;4.00;99.90;;;;;;5052410;28;20196;-83
2023/01/09 00:08:13;;;;;;;45.40;27.40;;;4.00;99.90;;;;;;5048425;28;20244;-85
2023/01/09 00:10:40;;;;;;;51.78;29.17;;;3.90;99.90;;;;;;5046639;28;20206;-84
2023/01/09 00:13:11;;;;;;;50.72;30.40;;;4.10;99.90;;;;;;5042807;28;20547;-84
2023/01/09 00:15:39;;;;;;;40.45;23.95;;;4.00;99.90;;;;;;5059942;28;20447;-86
2023/01/09 00:18:07;;;;;;;43.83;24.95;;;3.90;99.90;;;;;;5055625;28;20546;-88
2023/01/09 00:20:35;;;;;;;45.20;24.95;;;3.80;99.90;;;;;;5045504;28;20206;-85
2023/01/09 00:23:02;;;;;;;36.05;23.38;;;4.00;99.90;;;;;;5039428;28;20423;-83
2023/01/09 00:25:29;;;;;;;49.10;27.23;;;4.00;99.90;;;;;;5055047;28;20215;-83
2023/01/09 00:27:56;;;;;;;65.85;35.55;;;4.10;99.90;;;;;;5054409;28;20269;-83
2023/01/09 00:30:24;;;;;;;59.75;35.40;;;3.90;99.90;;;;;;5029618;28;20211;-85
2023/01/09 00:32:53;;;;;;;47.75;26.02;;;3.90;99.90;;;;;;5041521;28;20230;-83
2023/01/09 00:35:22;;;;;;;58.05;30.35;;;3.90;99.90;;;;;;5051694;28;20212;-83
2023/01/09 00:37:49;;;;;;;53.75;29.77;;;4.00;99.90;;;;;;5028751;28;20510;-83
2023/01/09 00:40:17;;;;;;;41.97;27.63;;;4.10;99.90;;;;;;5054841;28;20203;-86
2023/01/09 00:42:51;;;;;;;45.50;28.63;;;4.10;99.90;;;;;;5044609;28;20565;-85
2023/01/09 00:45:27;;;;;;;44.55;27.83;;;4.10;99.90;;;;;;5049377;28;20203;-84
2023/01/09 00:48:01;;;;;;;44.88;27.48;;;4.00;99.90;;;;;;5052489;28;20241;-85
2023/01/09 00:50:31;;;;;;;49.75;30.10;;;3.90;99.90;;;;;;5042713;28;20215;-87
2023/01/09 00:53:02;;;;;;;43.75;29.92;;;4.00;99.90;;;;;;5034445;28;20228;-84
2023/01/09 00:55:29;;;;;;;45.83;31.38;;;3.80;99.90;;;;;;5039781;28;20202;-85
2023/01/09 00:57:56;;;;;;;51.38;31.27;;;3.80;99.90;;;;;;5051957;28;20410;-85
2023/01/09 01:00:23;;;;;;;62.83;31.85;;;3.80;99.90;;;;;;5029750;28;20200;-84
2023/01/09 01:02:50;;;;;;;41.25;27.63;;;3.80;99.90;;;;;;5042441;28;20205;-87
2023/01/09 01:08:13;;;;;;;49.75;34.28;;;3.90;99.90;;;;;;5035483;28;20207;-84
2023/01/09 01:10:40;;;;;;;43.42;28.08;;;3.80;99.90;;;;;;5033991;28;20203;-86
2023/01/09 01:13:08;;;;;;;45.85;29.27;;;3.80;99.90;;;;;;5043743;28;20257;-84
2023/01/09 01:15:38;;;;;;;52.53;30.42;;;3.80;99.90;;;;;;5044902;28;20211;-85
2023/01/09 01:18:05;;;;;;;51.83;31.98;;;3.80;99.90;;;;;;5058836;28;20244;-83
2023/01/09 01:20:33;;;;;;;59.25;34.10;;;3.80;99.90;;;;;;5043315;28;20217;-84
2023/01/09 01:23:00;;;;;;;42.10;29.00;;;3.60;99.90;;;;;;5063167;28;20199;-84
2023/01/09 01:25:27;;;;;;;54.80;33.03;;;3.60;99.90;;;;;;5047402;28;20218;-84
2023/01/09 01:27:54;;;;;;;43.30;27.75;;;3.60;99.90;;;;;;5062922;28;20223;-84
2023/01/09 01:30:23;;;;;;;46.20;26.10;;;3.80;99.90;;;;;;5045583;28;20210;-85
2023/01/09 01:32:50;;;;;;;69.70;33.42;;;3.70;99.90;;;;;;5062388;28;20542;-84
2023/01/09 01:35:17;;;;;;;51.83;30.83;;;3.80;99.90;;;;;;5038830;28;20512;-84
2023/01/09 01:37:44;;;;;;;52.75;29.05;;;4.00;99.90;;;;;;5044547;28;20218;-86
2023/01/09 01:40:11;;;;;;;61.45;32.88;;;4.10;99.90;;;;;;5057043;28;20200;-82
2023/01/09 01:42:47;;;;;;;45.22;26.15;;;4.20;99.90;;;;;;5040754;28;20274;-82
2023/01/09 01:45:14;;;;;;;32.28;24.10;;;4.30;99.90;;;;;;5055762;28;20526;-83
2023/01/09 01:47:57;;;;;;;47.90;27.98;;;4.20;99.90;;;;;;5040651;28;20298;-82
2023/01/09 01:50:39;;;;;;;38.30;27.05;;;4.30;99.90;;;;;;5054844;28;20206;-82
2023/01/09 01:53:12;;;;;;;40.30;26.60;;;4.20;99.90;;;;;;5030467;28;20214;-86
2023/01/09 01:55:54;;;;;;;40.35;25.40;;;4.20;99.90;;;;;;5043456;28;20207;-86
2023/01/09 01:58:20;;;;;;;43.35;25.98;;;4.00;99.90;;;;;;5038127;28;20199;-81
2023/01/09 02:00:49;;;;;;;37.13;25.33;;;3.80;99.90;;;;;;5035539;28;20198;-83
2023/01/09 02:03:20;;;;;;;42.83;28.92;;;3.90;99.90;;;;;;5043387;28;20245;-84
2023/01/09 02:05:48;;;;;;;47.90;27.77;;;3.60;99.90;;;;;;5030642;28;20267;-84
2023/01/09 02:08:16;;;;;;;49.50;29.42;;;3.60;99.90;;;;;;5047272;28;20207;-83
2023/01/09 02:10:44;;;;;;;44.88;29.83;;;3.60;99.90;;;;;;5062444;28;20213;-83
2023/01/09 02:13:12;;;;;;;47.97;28.85;;;3.70;99.90;;;;;;5048306;28;20270;-84
2023/01/09 02:15:54;;;;;;;49.92;31.02;;;3.60;99.90;;;;;;5059553;28;20215;-85
2023/01/09 02:18:33;;;;;;;42.10;26.52;;;3.50;99.90;;;;;;5036110;28;20199;-85
2023/01/09 02:21:12;;;;;;;49.40;30.55;;;3.40;99.90;;;;;;5055515;28;20529;-84
2023/01/09 02:24:38;;;;;;;54.00;32.40;;;3.50;99.90;;;;;;5039912;28;20321;-84
2023/01/09 02:27:33;;;;;;;49.83;28.48;;;3.60;99.90;;;;;;5020770;28;20249;-85
2023/01/09 02:30:31;;;;;;;49.20;29.00;;;3.60;99.90;;;;;;5032735;28;20383;-84
2023/01/09 02:33:05;;;;;;;45.58;28.30;;;3.60;99.90;;;;;;5039054;28;20231;-82
2023/01/09 02:35:44;;;;;;;44.42;28.35;;;3.60;99.90;;;;;;5046933;28;20199;-89
2023/01/09 02:38:33;;;;;;;40.05;27.58;;;3.50;99.90;;;;;;5059527;28;20203;-83
2023/01/09 02:41:07;;;;;;;47.58;28.23;;;3.50;99.90;;;;;;5038535;28;20503;-88
2023/01/09 02:43:34;;;;;;;44.42;29.23;;;3.50;99.90;;;;;;5046536;28;20209;-83
2023/01/09 02:46:01;;;;;;;43.72;26.85;;;3.50;99.90;;;;;;5043104;28;20203;-83
2023/01/09 02:48:29;;;;;;;41.17;27.33;;;3.50;99.90;;;;;;5034898;28;20203;-85
2023/01/09 02:51:16;;;;;;;43.45;28.73;;;3.50;99.90;;;;;;5062873;28;20371;-82
2023/01/09 02:53:50;;;;;;;45.97;29.33;;;3.40;99.90;;;;;;5035918;28;20277;-83
2023/01/09 02:57:05;;;;;;;44.50;27.38;;;3.50;99.90;;;;;;5035901;28;20200;-81
2023/01/09 02:59:45;;;;;;;45.22;27.63;;;3.40;99.90;;;;;;5039824;28;20205;-86
2023/01/09 03:02:35;;;;;;;47.55;30.77;;;3.50;99.90;;;;;;5060462;28;20192;-86
2023/01/09 03:05:34;;;;;;;53.53;32.60;;;3.50;99.90;;;;;;5042077;28;20229;-84
2023/01/09 03:08:06;;;;;;;44.13;31.50;;;3.50;99.90;;;;;;5039308;28;20411;-86
2023/01/09 03:11:00;;;;;;;51.88;33.25;;;3.50;99.90;;;;;;5035870;28;20500;-84
2023/01/09 03:13:41;;;;;;;46.45;31.98;;;3.60;99.90;;;;;;5042415;28;20223;-84
2023/01/09 03:16:11;;;;;;;64.40;36.42;;;3.60;99.90;;;;;;5036320;28;20506;-84
2023/01/09 03:18:40;;;;;;;44.42;29.52;;;3.60;99.90;;;;;;5034183;28;20208;-86
2023/01/09 03:21:08;;;;;;;43.95;30.60;;;3.60;99.90;;;;;;5045360;28;20221;-83
2023/01/09 03:23:46;;;;;;;46.58;30.67;;;3.50;99.90;;;;;;5045731;28;20207;-84
2023/01/09 03:26:13;;;;;;;43.25;27.48;;;3.60;99.90;;;;;;5040752;28;20491;-85
2023/01/09 03:28:41;;;;;;;46.15;29.15;;;3.60;99.90;;;;;;5036407;28;20411;-84
2023/01/09 03:31:08;;;;;;;40.63;24.23;;;3.60;99.90;;;;;;5039675;28;20267;-81
2023/01/09 03:33:35;;;;;;;38.88;24.80;;;3.90;99.90;;;;;;5037743;28;20255;-84
2023/01/09 03:36:03;;;;;;;37.38;25.60;;;3.60;99.90;;;;;;5053967;28;20246;-84
2023/01/09 03:38:30;;;;;;;37.10;23.58;;;3.60;99.90;;;;;;5035014;28;20566;-86
2023/01/09 03:40:57;;;;;;;37.47;24.35;;;3.50;99.90;;;;;;5041331;28;20202;-85
2023/01/09 03:43:24;;;;;;;37.13;24.83;;;3.50;99.90;;;;;;5045192;28;20198;-87
2023/01/09 03:45:51;;;;;;;40.75;25.92;;;3.60;99.90;;;;;;5034417;28;20203;-87
2023/01/09 03:48:29;;;;;;;35.85;22.85;;;3.60;99.90;;;;;;5048563;28;20207;-90
2023/01/09 03:50:56;;;;;;;45.97;27.88;;;3.60;99.90;;;;;;5246335;22;20253;-86
2023/01/09 03:53:26;;;;;;;37.20;24.52;;;3.60;99.90;;;;;;5039966;28;20223;-86
2023/01/09 03:55:55;;;;;;;40.05;23.88;;;3.60;99.90;;;;;;5037185;28;20254;-86
2023/01/09 03:58:24;;;;;;;35.60;22.02;;;3.60;99.90;;;;;;5045368;28;20207;-87
2023/01/09 04:00:56;;;;;;;41.80;25.00;;;3.70;99.90;;;;;;5041254;28;20211;-84
2023/01/09 04:03:23;;;;;;;35.63;21.90;;;3.70;99.90;;;;;;5065855;28;20245;-84
2023/01/09 04:05:53;;;;;;;38.08;24.60;;;3.70;99.90;;;;;;5065777;22;20259;-87
2023/01/09 04:08:20;;;;;;;30.80;21.38;;;3.80;99.90;;;;;;5182594;22;20242;-84
2023/01/09 04:10:49;;;;;;;32.17;20.58;;;3.80;99.90;;;;;;5022641;28;20459;-87
2023/01/09 04:13:16;;;;;;;40.55;23.95;;;3.80;99.90;;;;;;5035292;28;20277;-87
2023/01/09 04:15:43;;;;;;;35.10;23.77;;;3.80;99.90;;;;;;5031321;28;20211;-84
2023/01/09 04:18:10;;;;;;;38.25;23.58;;;3.90;99.90;;;;;;5043650;28;20214;-83
2023/01/09 04:20:37;;;;;;;26.85;21.85;;;3.90;99.90;;;;;;5034069;28;20218;-88
2023/01/09 04:23:05;;;;;;;35.38;23.13;;;3.70;99.90;;;;;;5038513;28;20212;-89
2023/01/09 04:25:32;;;;;;;43.17;22.95;;;3.90;99.90;;;;;;5171247;22;20240;-85
2023/01/09 04:27:59;;;;;;;54.80;29.98;;;3.90;99.90;;;;;;5024854;28;20205;-85
2023/01/09 04:30:26;;;;;;;34.63;22.75;;;4.00;99.90;;;;;;5026474;28;20250;-87
2023/01/09 04:32:53;;;;;;;36.58;23.45;;;3.90;99.90;;;;;;5019843;28;20522;-84
2023/01/09 04:35:20;;;;;;;34.60;21.85;;;3.90;99.90;;;;;;5038833;28;20250;-83
2023/01/09 04:37:47;;;;;;;30.52;21.30;;;3.90;99.90;;;;;;5020586;28;20208;-84
2023/01/09 04:40:15;;;;;;;33.67;22.38;;;4.00;99.90;;;;;;5021277;28;20212;-83
2023/01/09 04:42:42;;;;;;;29.50;21.10;;;4.00;99.90;;;;;;5019628;28;20524;-83
2023/01/09 04:45:10;;;;;;;33.03;21.95;;;4.00;99.90;;;;;;5038852;28;20226;-84
2023/01/09 04:47:37;;;;;;;35.53;22.50;;;4.00;99.90;;;;;;5022560;28;20215;-87
2023/01/09 04:50:05;;;;;;;29.02;21.98;;;4.00;99.90;;;;;;5022748;28;20219;-88
2023/01/09 04:52:31;;;;;;;33.05;20.58;;;4.00;99.90;;;;;;5040757;28;20235;-90
2023/01/09 04:55:07;;;;;;;36.58;22.92;;;4.00;99.90;;;;;;5039721;28;20241;-87
2023/01/09 04:57:34;;;;;;;33.45;23.90;;;3.90;99.90;;;;;;5039061;28;20204;-90
2023/01/09 05:00:02;;;;;;;34.63;22.38;;;3.90;99.90;;;;;;5055842;28;20206;-85
2023/01/09 05:02:29;;;;;;;35.13;23.40;;;3.90;99.90;;;;;;5029854;28;20207;-83
2023/01/09 05:04:56;;;;;;;32.00;21.67;;;3.90;99.90;;;;;;5031159;28;20252;-85
2023/01/09 05:07:23;;;;;;;40.42;24.60;;;3.80;99.90;;;;;;5035941;28;20523;-86
2023/01/09 05:09:50;;;;;;;37.05;25.10;;;3.80;99.90;;;;;;5039493;28;20514;-84
2023/01/09 05:12:17;;;;;;;38.65;24.08;;;3.80;99.90;;;;;;5046778;28;20250;-85
2023/01/09 05:14:44;;;;;;;38.35;25.83;;;3.70;99.90;;;;;;5038935;28;20273;-84
2023/01/09 05:17:12;;;;;;;36.00;23.17;;;3.60;99.90;;;;;;5050475;28;20211;-87
2023/01/09 05:19:38;;;;;;;40.63;27.27;;;3.70;99.90;;;;;;5046085;28;20476;-91
2023/01/09 05:22:06;;;;;;;34.60;24.25;;;3.60;99.90;;;;;;5046298;28;20214;-87
2023/01/09 05:24:33;;;;;;;39.20;24.25;;;3.60;99.90;;;;;;5043820;28;20205;-88
2023/01/09 05:27:01;;;;;;;36.33;25.33;;;3.50;99.90;;;;;;5041081;28;20208;-89
2023/01/09 05:29:28;;;;;;;46.20;28.27;;;3.50;99.90;;;;;;5037139;28;20196;-84
2023/01/09 05:31:56;;;;;;;38.40;26.60;;;3.30;99.90;;;;;;5043342;28;20219;-83
2023/01/09 05:34:24;;;;;;;39.80;25.63;;;3.30;99.90;;;;;;5038135;28;20241;-83
2023/01/09 05:36:52;;;;;;;40.67;26.88;;;3.20;99.90;;;;;;5038441;28;20249;-83
2023/01/09 05:39:23;;;;;;;38.83;25.63;;;3.20;99.90;;;;;;5047946;28;20233;-86
2023/01/09 05:41:51;;;;;;;43.78;29.10;;;3.30;99.90;;;;;;5045709;28;20207;-86
2023/01/09 05:44:19;;;;;;;40.95;28.38;;;3.30;99.90;;;;;;5047058;28;20234;-82
2023/01/09 05:46:48;;;;;;;37.58;25.48;;;3.20;99.90;;;;;;5043072;28;20203;-84
2023/01/09 05:49:21;;;;;;;45.72;27.25;;;3.20;99.90;;;;;;5050997;28;20203;-85
2023/01/09 05:52:03;;;;;;;39.60;27.23;;;3.20;99.90;;;;;;5037153;28;20211;-83
2023/01/09 05:54:31;;;;;;;42.65;27.90;;;3.20;99.90;;;;;;5056164;28;20226;-83
2023/01/09 05:57:01;;;;;;;46.00;25.60;;;3.30;99.90;;;;;;5034410;28;20238;-88
2023/01/09 05:59:32;;;;;;;34.08;23.30;;;3.30;99.90;;;;;;5043023;28;20279;-82
2023/01/09 06:01:59;;;;;;;39.70;25.65;;;3.40;99.90;;;;;;5036678;28;20223;-83
2023/01/09 06:04:28;;;;;;;41.25;28.25;;;3.40;99.90;;;;;;5047324;28;20239;-85
2023/01/09 06:06:56;;;;;;;47.58;28.52;;;3.50;99.90;;;;;;5038654;28;20203;-83
2023/01/09 06:09:23;;;;;;;38.58;25.58;;;3.50;99.90;;;;;;5039117;28;20218;-86
2023/01/09 06:11:50;;;;;;;42.33;26.23;;;3.60;99.90;;;;;;5039457;28;20211;-84
2023/01/09 06:14:17;;;;;;;43.03;27.30;;;3.40;99.90;;;;;;5038443;28;20284;-85
2023/01/09 06:16:44;;;;;;;39.75;26.92;;;3.40;99.90;;;;;;5040351;28;20410;-85
2023/01/09 06:19:11;;;;;;;37.80;27.33;;;3.40;99.90;;;;;;5051266;28;20218;-85
2023/01/09 06:21:38;;;;;;;36.88;24.92;;;3.40;99.90;;;;;;5038988;28;20242;-87
2023/01/09 06:24:06;;;;;;;37.60;25.17;;;3.50;99.90;;;;;;5036186;28;20379;-85
2023/01/09 06:26:33;;;;;;;40.90;24.70;;;3.50;99.90;;;;;;5037691;28;20215;-87
2023/01/09 06:29:01;;;;;;;32.42;23.70;;;3.60;99.90;;;;;;5052463;28;20315;-91
2023/01/09 06:31:28;;;;;;;31.98;22.20;;;3.70;99.90;;;;;;5051485;28;20211;-86
2023/01/09 06:33:54;;;;;;;37.30;23.67;;;3.80;99.90;;;;;;5036722;28;20277;-84
2023/01/09 06:36:22;;;;;;;36.83;23.50;;;4.20;99.90;;;;;;5023192;28;20446;-84
2023/01/09 06:38:48;;;;;;;35.80;24.80;;;4.60;99.90;;;;;;5023551;28;20215;-84
2023/01/09 06:41:16;;;;;;;32.83;21.90;;;4.80;99.90;;;;;;5029079;28;20204;-84
2023/01/09 06:43:42;;;;;;;33.63;21.55;;;4.70;99.90;;;;;;5031537;28;20231;-86
2023/01/09 06:46:09;;;;;;;35.60;25.10;;;4.40;99.90;;;;;;5031584;28;20207;-84
2023/01/09 06:48:36;;;;;;;34.55;23.45;;;4.30;99.90;;;;;;5048136;28;20234;-83
2023/01/09 06:51:03;;;;;;;36.30;25.17;;;4.20;99.90;;;;;;5038859;28;20241;-87
2023/01/09 06:53:30;;;;;;;36.20;21.25;;;4.10;99.90;;;;;;5035034;28;20274;-87
2023/01/09 06:55:57;;;;;;;32.33;21.13;;;4.00;99.90;;;;;;5043470;28;20595;-87
2023/01/09 06:58:24;;;;;;;27.98;20.58;;;3.90;99.90;;;;;;5052735;28;20427;-84
2023/01/09 07:00:52;;;;;;;35.53;22.67;;;3.90;99.90;;;;;;5029145;28;20207;-91
2023/01/09 07:03:21;;;;;;;31.60;21.42;;;3.90;99.90;;;;;;5036331;28;20215;-85
2023/01/09 07:05:48;;;;;;;34.63;22.55;;;4.00;99.90;;;;;;5039486;28;20235;-86
2023/01/09 07:08:15;;;;;;;33.83;24.40;;;4.00;99.90;;;;;;5053797;28;20207;-87
2023/01/09 07:10:43;;;;;;;36.45;22.33;;;4.10;99.90;;;;;;5035466;28;20490;-86
2023/01/09 07:13:10;;;;;;;48.60;23.30;;;4.10;99.90;;;;;;5025391;28;20240;-85
2023/01/09 07:15:38;;;;;;;31.30;21.65;;;4.00;99.90;;;;;;5037918;28;20505;-86
2023/01/09 07:18:04;;;;;;;32.67;21.42;;;4.10;99.90;;;;;;5046154;28;20214;-86
2023/01/09 07:20:31;;;;;;;26.67;19.45;;;4.10;99.90;;;;;;5030646;28;20254;-83
2023/01/09 07:22:59;;;;;;;33.50;22.38;;;4.00;99.90;;;;;;5043535;28;20213;-86
2023/01/09 07:25:26;;;;;;;35.47;21.52;;;4.10;99.90;;;;;;5052312;28;20210;-88
2023/01/09 07:27:53;;;;;;;41.35;23.08;;;4.20;99.90;;;;;;5052187;28;20216;-85
2023/01/09 07:30:20;;;;;;;31.60;21.83;;;4.20;99.90;;;;;;5032347;28;20402;-88
2023/01/09 07:32:47;;;;;;;35.00;20.52;;;4.20;99.90;;;;;;5044377;28;20202;-86
2023/01/09 07:35:14;;;;;;;30.52;19.88;;;4.20;99.90;;;;;;5040853;28;20235;-85
2023/01/09 07:37:41;;;;;;;38.58;24.05;;;4.20;99.90;;;;;;5043109;28;20226;-86
2023/01/09 07:40:08;;;;;;;34.35;21.10;;;4.30;99.90;;;;;;5142391;22;21368;-85
2023/01/09 07:42:35;;;;;;;34.80;22.05;;;4.30;99.90;;;;;;5017700;28;20207;-85
2023/01/09 07:45:03;;;;;;;33.72;23.08;;;4.30;99.90;;;;;;5011722;28;20209;-84
2023/01/09 07:47:30;;;;;;;38.45;23.38;;;4.30;99.90;;;;;;5017766;28;20205;-84
2023/01/09 07:49:58;;;;;;;36.10;21.70;;;4.30;99.90;;;;;;5019604;28;20211;-89
2023/01/09 07:52:27;;;;;;;36.15;21.60;;;4.50;99.90;;;;;;5023786;28;20204;-91
2023/01/09 07:54:58;;;;;;;36.45;24.45;;;4.40;99.90;;;;;;5025889;28;20220;-85
2023/01/09 08:00:12;;;;;;;34.60;25.33;;;4.40;99.90;;;;;;5013163;28;20215;-86
2023/01/09 08:02:40;;;;;;;34.58;24.80;;;4.50;99.90;;;;;;5018948;28;20262;-85
2023/01/09 08:05:12;;;;;;;38.70;22.13;;;4.50;99.90;;;;;;5037391;28;20235;-86
2023/01/09 08:07:39;;;;;;;31.58;24.20;;;4.70;99.90;;;;;;5040367;28;20212;-85
2023/01/09 08:10:07;;;;;;;32.53;21.98;;;4.80;99.90;;;;;;5028493;28;20257;-84
2023/01/09 08:12:34;;;;;;;35.38;23.33;;;4.80;99.90;;;;;;5029615;28;20205;-85
2023/01/09 08:15:01;;;;;;;39.70;22.77;;;4.80;99.90;;;;;;5037847;28;20409;-84
2023/01/09 08:17:28;;;;;;;38.25;24.60;;;4.90;99.90;;;;;;5021311;28;20215;-89
2023/01/09 08:19:55;;;;;;;35.75;23.50;;;5.00;99.90;;;;;;5016462;28;20210;-85
2023/01/09 08:22:22;;;;;;;35.35;24.90;;;5.20;99.90;;;;;;5017051;28;20237;-87
2023/01/09 08:24:49;;;;;;;33.15;21.80;;;5.20;99.90;;;;;;5019234;28;20505;-85
2023/01/09 08:27:16;;;;;;;42.80;24.38;;;5.00;99.90;;;;;;5020221;28;20423;-84
2023/01/09 08:29:43;;;;;;;47.70;28.75;;;5.00;99.90;;;;;;5020386;28;20209;-88
2023/01/09 08:32:10;;;;;;;45.33;29.30;;;5.10;99.90;;;;;;5017855;28;20255;-83
2023/01/09 08:34:37;;;;;;;50.28;30.08;;;5.10;99.90;;;;;;5020128;28;20279;-85
2023/01/09 08:37:06;;;;;;;48.58;30.42;;;5.10;99.90;;;;;;5022057;28;20401;-84
2023/01/09 08:39:34;;;;;;;43.08;26.90;;;5.00;99.90;;;;;;5020860;28;20201;-85
2023/01/09 08:47:34;;;;;;;36.58;24.42;;;5.10;99.90;;;;;;5023300;28;20208;-85
2023/01/09 08:50:03;;;;;;;40.85;25.15;;;5.40;99.90;;;;;;5024128;28;20385;-83
2023/01/09 08:52:30;;;;;;;35.38;23.60;;;5.40;99.90;;;;;;5026331;28;20383;-84
2023/01/09 08:54:57;;;;;;;41.97;26.08;;;5.40;99.90;;;;;;5020051;28;20229;-84
2023/01/09 08:57:24;;;;;;;36.35;23.67;;;5.40;99.90;;;;;;5020668;28;20444;-83
2023/01/09 08:59:51;;;;;;;37.35;22.45;;;5.40;99.90;;;;;;5038108;28;20228;-85
2023/01/09 09:02:18;;;;;;;45.30;24.70;;;5.20;99.90;;;;;;5023120;28;20233;-87
2023/01/09 09:04:46;;;;;;;41.25;21.85;;;5.20;99.90;;;;;;5020145;28;20205;-83
2023/01/09 09:07:14;;;;;;;35.72;23.52;;;5.30;99.90;;;;;;5024690;28;20209;-84
2023/01/09 09:09:40;;;;;;;37.90;24.58;;;5.40;99.90;;;;;;5021168;28;20217;-84
2023/01/09 09:12:07;;;;;;;29.40;21.05;;;5.50;99.90;;;;;;5022750;28;20543;-86
2023/01/09 09:17:20;;;;;;;27.73;20.27;;;5.50;99.90;;;;;;5022512;28;20193;-87
2023/01/09 09:19:48;;;;;;;26.23;20.17;;;5.40;99.90;;;;;;5023132;28;20204;-84
2023/01/09 09:22:15;;;;;;;33.17;20.75;;;5.40;99.90;;;;;;5021235;28;20201;-84
2023/01/09 09:24:42;;;;;;;28.27;19.10;;;5.70;99.90;;;;;;5019265;28;20209;-84
2023/01/09 09:27:09;;;;;;;30.65;18.38;;;5.90;99.90;;;;;;5016748;28;20397;-87
2023/01/09 09:29:35;;;;;;;31.65;18.85;;;5.90;99.90;;;;;;5022164;28;20209;-83
2023/01/09 09:32:02;;;;;;;30.00;17.90;;;6.10;99.90;;;;;;5020625;28;20358;-83
2023/01/09 09:34:30;;;;;;;26.38;17.55;;;6.20;99.90;;;;;;5020887;28;20224;-84
2023/01/09 09:36:57;;;;;;;31.10;19.75;;;6.40;99.90;;;;;;5025201;28;20308;-85
2023/01/09 09:39:26;;;;;;;32.17;19.35;;;6.60;99.90;;;;;;5019905;28;20197;-84
2023/01/09 09:45:14;;;;;;;29.92;19.50;;;6.90;99.90;;;;;;5015799;28;20204;-83
2023/01/09 09:47:50;;;;;;;27.55;17.85;;;6.60;99.90;;;;;;5032277;28;20214;-83
2023/01/09 09:50:44;;;;;;;29.77;19.00;;;6.60;99.90;;;;;;5020109;28;20206;-84
2023/01/09 09:53:26;;;;;;;33.92;18.95;;;6.80;99.90;;;;;;5039668;28;20199;-84
2023/01/09 09:55:53;;;;;;;25.55;18.80;;;6.80;99.90;;;;;;5014173;28;20197;-83
2023/01/09 09:58:37;;;;;;;27.98;19.33;;;7.10;99.90;;;;;;5021007;28;20708;-84
2023/01/09 10:01:07;;;;;;;29.77;18.83;;;7.30;99.90;;;;;;5015316;28;20297;-85
2023/01/09 10:03:45;;;;;;;30.40;20.00;;;7.70;99.90;;;;;;5021591;28;20205;-82
2023/01/09 10:06:32;;;;;;;28.52;17.63;;;7.90;99.90;;;;;;5021127;28;20203;-84
2023/01/09 10:09:13;;;;;;;25.63;16.65;;;8.00;99.90;;;;;;5020218;28;20272;-83
2023/01/09 10:12:13;;;;;;;28.42;19.17;;;7.90;99.90;;;;;;5036286;28;20270;-84
2023/01/09 10:14:40;;;;;;;28.02;17.75;;;7.90;99.90;;;;;;5036106;28;20383;-84
2023/01/09 10:17:22;;;;;;;27.63;18.25;;;8.10;99.90;;;;;;5037068;28;20216;-84
2023/01/09 10:20:28;;;;;;;26.75;18.73;;;8.00;99.90;;;;;;5012968;28;20204;-84
2023/01/09 10:23:09;;;;;;;28.80;18.85;;;8.20;99.90;;;;;;5021482;28;20381;-84
2023/01/09 10:26:04;;;;;;;36.17;16.23;;;8.50;99.90;;;;;;5022359;28;20277;-83
2023/01/09 10:29:06;;;;;;;30.58;18.48;;;8.60;99.90;;;;;;5021983;28;20236;-84
2023/01/09 10:31:39;;;;;;;26.88;16.40;;;8.70;99.90;;;;;;5026994;28;20197;-84
2023/01/09 10:34:13;;;;;;;26.70;17.55;;;8.50;99.90;;;;;;5020943;28;20232;-84
2023/01/09 10:36:49;;;;;;;35.88;18.88;;;8.60;99.90;;;;;;5022164;28;20236;-84
2023/01/09 10:39:26;;;;;;;23.42;17.75;;;8.40;99.90;;;;;;5022140;28;20194;-83
2023/01/09 10:42:19;;;;;;;26.15;16.00;;;8.70;99.90;;;;;;5021757;28;20248;-84
2023/01/09 10:45:00;;;;;;;30.42;17.38;;;9.10;99.90;;;;;;5020501;28;20215;-82
2023/01/09 10:47:38;;;;;;;29.83;19.08;;;9.20;99.90;;;;;;5021455;28;20202;-83
2023/01/09 10:50:21;;;;;;;22.23;15.93;;;9.30;99.90;;;;;;5008321;28;20507;-84
2023/01/09 10:52:51;;;;;;;31.98;17.85;;;9.50;99.90;;;;;;5020275;28;20395;-83
2023/01/09 10:55:35;;;;;;;32.38;20.17;;;9.50;99.90;;;;;;5036911;28;20253;-83
2023/01/09 10:58:10;;;;;;;42.22;23.15;;;9.60;99.90;;;;;;5012945;28;20473;-83
2023/01/09 11:00:38;;;;;;;30.13;20.83;;;9.40;99.90;;;;;;5020497;28;20297;-83
2023/01/09 11:03:09;;;;;;;33.05;20.35;;;9.40;99.90;;;;;;5011922;28;20216;-83
2023/01/09 11:05:36;;;;;;;34.88;21.35;;;9.70;99.90;;;;;;5023279;28;20215;-84
2023/01/09 11:08:12;;;;;;;32.10;19.77;;;9.80;99.90;;;;;;5024677;28;20226;-84
2023/01/09 11:11:00;;;;;;;33.28;19.33;;;9.90;99.90;;;;;;5024346;28;20203;-84
2023/01/09 11:13:32;;;;;;;30.52;17.92;;;10.10;99.90;;;;;;5022597;28;20461;-83
2023/01/09 11:16:20;;;;;;;34.05;18.10;;;10.20;99.90;;;;;;5049142;28;20227;-83
2023/01/09 11:18:57;;;;;;;24.83;17.15;;;10.40;99.90;;;;;;5022928;28;20360;-84
2023/01/09 11:21:34;;;;;;;25.17;17.05;;;10.60;99.90;;;;;;5023674;28;20199;-83
2023/01/09 11:24:20;;;;;;;23.92;17.02;;;10.60;99.90;;;;;;5024038;28;20195;-83
2023/01/09 11:26:50;;;;;;;31.17;16.27;;;10.70;99.90;;;;;;5026346;28;20211;-84
2023/01/09 11:29:19;;;;;;;26.25;19.02;;;10.80;99.90;;;;;;5029183;28;20200;-83
2023/01/09 11:31:58;;;;;;;22.88;16.58;;;10.90;99.90;;;;;;5023658;28;20447;-82
2023/01/09 11:34:31;;;;;;;24.15;17.80;;;10.90;99.90;;;;;;5024900;28;20238;-84
2023/01/09 11:37:10;;;;;;;27.17;18.48;;;10.80;99.90;;;;;;5024334;28;20246;-82
2023/01/09 11:39:40;;;;;;;22.70;15.93;;;10.90;99.90;;;;;;5039010;28;20568;-83
2023/01/09 11:45:13;;;;;;;25.50;15.40;;;10.70;99.90;;;;;;5022764;28;20201;-83
2023/01/09 11:47:40;;;;;;;24.60;17.75;;;10.40;99.90;;;;;;5018892;28;20220;-84
2023/01/09 11:50:15;;;;;;;20.02;16.13;;;10.40;99.90;;;;;;5027414;28;20223;-81
2023/01/09 11:52:42;;;;;;;27.95;17.30;;;10.50;99.90;;;;;;5022967;28;20213;-84
2023/01/09 11:55:17;;;;;;;23.92;15.23;;;10.50;99.90;;;;;;5039128;28;20226;-84
2023/01/09 11:57:44;;;;;;;17.77;13.35;;;10.50;99.90;;;;;;5022521;28;20256;-84
2023/01/09 12:00:36;;;;;;;10.27;8.68;;;10.40;99.90;;;;;;5021909;28;20246;-83
2023/01/09 12:03:12;;;;;;;10.55;7.93;;;10.40;99.90;;;;;;5014725;28;20207;-86
2023/01/09 12:06:20;;;;;;;8.90;6.80;;;10.10;99.90;;;;;;5024477;28;20256;-83
2023/01/09 12:09:10;;;;;;;9.52;7.82;;;10.10;99.90;;;;;;4976544;28;20212;-83
2023/01/09 12:11:54;;;;;;;5.80;5.20;;;10.00;99.90;;;;;;4990202;28;20196;-83
2023/01/09 12:14:56;;;;;;;10.10;7.47;;;10.00;99.90;;;;;;5026696;28;20235;-88
2023/01/09 12:17:40;;;;;;;9.43;7.50;;;9.90;99.90;;;;;;5035362;28;20208;-83
2023/01/09 12:20:15;;;;;;;10.05;7.35;;;9.80;99.90;;;;;;5025084;28;20246;-84
2023/01/09 12:23:03;;;;;;;10.80;7.25;;;9.80;99.90;;;;;;5023118;28;20262;-84
2023/01/09 12:26:13;;;;;;;8.15;5.68;;;9.70;99.90;;;;;;5019598;28;20223;-83
2023/01/09 12:28:58;;;;;;;8.40;5.68;;;9.80;99.90;;;;;;5022666;28;20291;-83
2023/01/09 12:31:49;;;;;;;7.15;5.47;;;10.00;99.90;;;;;;5026103;28;20204;-84
2023/01/09 12:34:29;;;;;;;9.52;6.30;;;10.00;99.90;;;;;;5023215;28;20238;-84
2023/01/09 12:37:28;;;;;;;8.43;5.80;;;10.10;99.90;;;;;;5027898;28;20207;-85
2023/01/09 12:40:05;;;;;;;7.60;5.75;;;9.90;99.90;;;;;;5015350;28;20211;-84
2023/01/09 12:42:41;;;;;;;6.95;4.72;;;9.90;99.90;;;;;;5022518;28;20411;-85
2023/01/09 12:45:31;;;;;;;7.28;5.28;;;9.90;99.90;;;;;;5022630;28;20224;-84
2023/01/09 12:48:22;;;;;;;7.75;5.75;;;9.90;99.90;;;;;;5012626;28;20204;-83
2023/01/09 12:51:00;;;;;;;7.35;5.65;;;9.90;99.90;;;;;;5015586;28;20239;-85
2023/01/09 12:53:36;;;;;;;7.55;6.13;;;10.00;99.90;;;;;;5019124;28;20208;-84
2023/01/09 12:56:08;;;;;;;7.03;5.72;;;10.00;99.90;;;;;;5021213;28;20225;-84
2023/01/09 12:58:43;;;;;;;7.85;5.80;;;10.10;99.90;;;;;;5021171;28;20616;-84
2023/01/09 13:01:17;;;;;;;11.85;5.60;;;10.00;99.90;;;;;;5022124;28;20504;-84
2023/01/09 13:03:48;;;;;;;6.43;5.70;;;9.90;99.90;;;;;;5020831;28;20383;-84
2023/01/09 13:06:18;;;;;;;6.63;5.60;;;10.00;99.90;;;;;;5021779;28;20267;-84
2023/01/09 13:08:52;;;;;;;7.45;4.97;;;9.90;99.90;;;;;;5021024;28;20458;-85
2023/01/09 13:11:23;;;;;;;5.53;4.97;;;9.80;99.90;;;;;;5036939;28;20747;-83
2023/01/09 13:14:17;;;;;;;6.90;5.57;;;9.80;99.90;;;;;;5018869;28;20210;-83
2023/01/09 13:16:51;;;;;;;6.13;5.35;;;9.70;99.90;;;;;;5021533;28;20282;-84
2023/01/09 13:19:41;;;;;;;7.32;5.70;;;9.90;99.90;;;;;;5036935;28;20198;-85
2023/01/09 13:22:11;;;;;;;6.10;4.80;;;9.80;99.90;;;;;;5030550;28;20196;-85
2023/01/09 13:25:03;;;;;;;8.85;5.53;;;9.80;99.90;;;;;;5029186;28;20210;-84